createdAt,value
2019-05-10T00:01:31.100Z,0.00
2019-05-10T00:03:30.626Z,0.00
2019-05-10T00:05:30.574Z,0.00
2019-05-10T00:06:30.553Z,0.00
2019-05-10T00:08:30.970Z,0.00
2019-05-10T00:10:30.477Z,0.00
2019-05-10T00:11:30.462Z,0.00
2019-05-10T00:17:30.850Z,0.00
2019-05-10T00:18:30.332Z,0.00
2019-05-10T00:19:30.325Z,0.00
2019-05-10T00:20:30.447Z,0.00
2019-05-10T00:24:30.217Z,0.00
2019-05-10T00:30:30.516Z,0.00
2019-05-10T00:32:30.072Z,0.00
2019-05-10T00:33:30.351Z,0.00
2019-05-10T00:36:30.344Z,0.00
2019-05-10T00:37:30.094Z,0.00
2019-05-10T00:38:30.079Z,0.00
2019-05-10T00:39:30.046Z,0.00
2019-05-10T00:42:30.346Z,0.00
2019-05-10T00:43:30.063Z,0.00
2019-05-10T00:47:29.936Z,0.00
2019-05-10T00:55:30.726Z,0.00
2019-05-10T00:56:29.754Z,0.00
2019-05-10T00:58:29.696Z,0.00
2019-05-10T01:01:29.619Z,0.00
2019-05-10T01:02:29.883Z,0.00
2019-05-10T01:03:29.640Z,0.00
2019-05-10T01:07:29.564Z,0.00
2019-05-10T01:08:29.429Z,0.00
2019-05-10T01:09:29.845Z,0.00
2019-05-10T01:12:29.305Z,0.00
2019-05-10T01:13:29.342Z,0.00
2019-05-10T01:14:29.357Z,0.00
2019-05-10T01:15:29.447Z,0.00
2019-05-10T01:16:29.536Z,0.00
2019-05-10T01:17:29.215Z,0.00
2019-05-10T01:18:29.285Z,0.00
2019-05-10T01:19:29.316Z,0.00
2019-05-10T01:20:29.287Z,0.00
2019-05-10T01:21:29.249Z,0.00
2019-05-10T01:22:29.209Z,0.00
2019-05-10T01:24:29.102Z,0.00
2019-05-10T01:25:35.130Z,0.00
2019-05-10T01:26:29.299Z,0.00
2019-05-10T01:28:29.250Z,0.00
2019-05-10T01:29:29.158Z,0.00
2019-05-10T01:30:30.285Z,0.00
2019-05-10T01:31:29.190Z,0.00
2019-05-10T01:33:28.998Z,0.00
2019-05-10T01:35:28.990Z,0.00
2019-05-10T01:37:29.327Z,0.00
2019-05-10T01:38:28.949Z,0.00
2019-05-10T01:39:29.204Z,0.00
2019-05-10T01:42:28.820Z,0.00
2019-05-10T01:43:28.786Z,0.00
2019-05-10T01:44:29.450Z,0.00
2019-05-10T01:45:28.777Z,0.00
2019-05-10T01:46:28.819Z,0.00
2019-05-10T01:47:28.780Z,0.00
2019-05-10T01:48:28.767Z,0.00
2019-05-10T01:49:29.172Z,0.00
2019-05-10T01:50:29.568Z,0.00
2019-05-10T01:51:28.711Z,0.00
2019-05-10T01:52:29.486Z,0.00
2019-05-10T01:53:28.639Z,0.00
2019-05-10T01:54:28.742Z,0.00
2019-05-10T01:55:28.541Z,0.00
2019-05-10T01:56:28.923Z,0.00
2019-05-10T01:57:28.675Z,0.00
2019-05-10T01:58:29.161Z,0.00
2019-05-10T01:59:28.462Z,0.00
2019-05-10T02:00:28.372Z,0.00
2019-05-10T02:01:28.417Z,0.00
2019-05-10T02:02:28.840Z,0.00
2019-05-10T02:03:28.480Z,0.00
2019-05-10T02:04:28.565Z,0.00
2019-05-10T02:06:28.342Z,0.00
2019-05-10T02:08:28.509Z,0.00
2019-05-10T02:09:28.330Z,0.00
2019-05-10T02:10:28.399Z,0.00
2019-05-10T02:11:28.362Z,0.00
2019-05-10T02:13:28.251Z,0.00
2019-05-10T02:14:28.607Z,0.00
2019-05-10T02:15:28.390Z,0.00
2019-05-10T02:16:28.221Z,0.00
2019-05-10T02:18:28.456Z,0.00
2019-05-10T02:19:28.452Z,0.00
2019-05-10T02:20:28.010Z,0.00
2019-05-10T02:21:28.525Z,0.00
2019-05-10T02:25:28.071Z,0.00
2019-05-10T02:26:27.976Z,0.00
2019-05-10T02:27:28.132Z,0.00
2019-05-10T02:28:28.106Z,0.00
2019-05-10T02:29:27.958Z,0.00
2019-05-10T02:30:28.027Z,0.00
2019-05-10T02:32:27.955Z,0.00
2019-05-10T02:33:29.353Z,0.00
2019-05-10T02:35:27.860Z,0.00
2019-05-10T02:36:28.062Z,0.00
2019-05-10T02:37:28.002Z,0.00
2019-05-10T02:39:27.651Z,0.00
2019-05-10T02:40:27.631Z,0.00
2019-05-10T02:41:27.663Z,0.00
2019-05-10T02:42:27.729Z,0.00
2019-05-10T02:45:27.808Z,0.00
2019-05-10T02:54:27.755Z,4.00
2019-05-10T02:56:30.914Z,4.00
2019-05-10T03:11:27.372Z,24.00
2019-05-10T03:12:26.972Z,24.00
2019-05-10T03:23:27.345Z,100.00
2019-05-10T03:24:28.001Z,108.00
2019-05-10T03:26:26.701Z,128.00
2019-05-10T03:27:26.576Z,140.00
2019-05-10T03:28:26.663Z,152.00
2019-05-10T03:29:26.883Z,168.00
2019-05-10T03:30:26.790Z,180.00
2019-05-10T03:31:26.569Z,200.00
2019-05-10T03:32:26.478Z,220.00
2019-05-10T03:33:26.471Z,240.00
2019-05-10T03:34:26.573Z,256.00
2019-05-10T03:35:26.901Z,272.00
2019-05-10T03:36:26.511Z,296.00
2019-05-10T03:37:26.472Z,316.00
2019-05-10T03:39:26.438Z,368.00
2019-05-10T03:41:26.787Z,436.00
2019-05-10T03:50:26.293Z,804.00
2019-05-10T03:53:26.039Z,960.00
2019-05-10T03:56:26.275Z,1024.00
2019-05-10T03:59:25.912Z,1224.00
2019-05-10T04:00:26.024Z,1320.00
2019-05-10T04:01:25.871Z,1440.00
2019-05-10T04:02:26.087Z,1548.00
2019-05-10T04:10:26.055Z,1960.00
2019-05-10T04:16:25.941Z,1712.00
2019-05-10T04:19:25.730Z,1384.00
2019-05-10T04:20:25.671Z,1168.00
2019-05-10T04:21:25.620Z,912.00
2019-05-10T04:22:25.604Z,704.00
2019-05-10T04:23:25.839Z,592.00
2019-05-10T04:25:25.385Z,508.00
2019-05-10T04:26:25.375Z,544.00
2019-05-10T04:27:32.521Z,632.00
2019-05-10T04:28:25.440Z,752.00
2019-05-10T04:29:25.503Z,856.00
2019-05-10T04:30:25.387Z,932.00
2019-05-10T04:31:25.361Z,944.00
2019-05-10T04:39:25.504Z,656.00
2019-05-10T04:40:25.146Z,708.00
2019-05-10T04:47:25.445Z,1104.00
2019-05-10T04:48:25.290Z,1176.00
2019-05-10T04:49:25.470Z,1236.00
2019-05-10T04:50:25.164Z,1288.00
2019-05-10T04:51:25.161Z,1352.00
2019-05-10T04:53:25.184Z,1512.00
2019-05-10T04:57:29.540Z,1932.00
2019-05-10T04:58:30.268Z,2012.00
2019-05-10T04:59:25.511Z,2064.00
2019-05-10T05:00:25.171Z,2044.00
2019-05-10T05:06:24.942Z,2152.00
2019-05-10T05:07:24.566Z,2184.00
2019-05-10T05:08:24.577Z,2228.00
2019-05-10T05:09:24.585Z,2288.00
2019-05-10T05:10:24.485Z,2340.00
2019-05-10T05:15:24.972Z,2284.00
2019-05-10T05:17:24.384Z,2296.00
2019-05-10T05:18:24.422Z,2380.00
2019-05-10T05:19:24.313Z,2468.00
2019-05-10T05:20:24.398Z,2544.00
2019-05-10T05:26:26.413Z,2020.00
2019-05-10T05:28:24.728Z,1988.00
2019-05-10T05:29:25.904Z,1920.00
2019-05-10T05:31:24.084Z,1792.00
2019-05-10T05:33:24.344Z,1532.00
2019-05-10T05:34:24.180Z,1760.00
2019-05-10T05:35:24.123Z,1524.00
2019-05-10T05:36:24.388Z,1696.00
2019-05-10T05:37:23.962Z,1724.00
2019-05-10T05:39:24.062Z,1416.00
2019-05-10T05:42:27.892Z,1592.00
2019-05-10T05:43:23.989Z,1752.00
2019-05-10T05:44:26.177Z,1796.00
2019-05-10T05:45:28.216Z,2148.00
2019-05-10T05:46:23.887Z,2008.00
2019-05-10T05:47:24.173Z,2224.00
2019-05-10T05:50:23.768Z,2024.00
2019-05-10T05:51:23.664Z,1900.00
2019-05-10T05:58:27.424Z,1284.00
2019-05-10T06:00:24.311Z,1468.00
2019-05-10T06:01:28.996Z,1608.00
2019-05-10T06:03:27.715Z,1496.00
2019-05-10T06:04:23.717Z,1516.00
2019-05-10T06:05:33.505Z,1572.00
2019-05-10T06:06:23.744Z,1404.00
2019-05-10T06:07:23.489Z,1564.00
2019-05-10T06:08:25.118Z,1852.00
2019-05-10T06:09:23.904Z,1824.00
2019-05-10T06:10:23.624Z,1396.00
2019-05-10T06:11:23.829Z,1460.00
2019-05-10T06:14:23.502Z,2052.00
2019-05-10T06:19:29.516Z,2376.00
2019-05-10T06:20:23.131Z,2348.00
2019-05-10T06:22:23.182Z,2708.00
2019-05-10T06:23:34.436Z,2952.00
2019-05-10T06:24:23.757Z,3884.00
2019-05-10T06:25:37.889Z,3948.00
2019-05-10T06:26:28.379Z,4152.00
2019-05-10T06:27:23.092Z,3872.00
2019-05-10T06:28:26.990Z,4100.00
2019-05-10T06:29:22.912Z,4160.00
2019-05-10T06:31:23.288Z,4444.00
2019-05-10T06:32:23.031Z,4384.00
2019-05-10T06:33:23.082Z,4444.00
2019-05-10T06:34:22.946Z,4728.00
2019-05-10T06:35:22.920Z,5092.00
2019-05-10T06:37:22.843Z,4816.00
2019-05-10T06:38:23.075Z,5088.00
2019-05-10T06:40:33.552Z,5376.00
2019-05-10T06:41:22.690Z,5380.00
2019-05-10T06:42:22.747Z,6352.00
2019-05-10T06:43:22.623Z,6424.00
2019-05-10T06:45:23.151Z,6616.00
2019-05-10T06:46:23.646Z,8508.00
2019-05-10T06:48:27.398Z,11780.00
2019-05-10T06:49:22.629Z,12032.00
2019-05-10T06:50:28.606Z,11488.00
2019-05-10T06:51:22.545Z,11832.00
2019-05-10T06:53:23.424Z,13496.00
2019-05-10T06:56:22.370Z,15876.00
2019-05-10T06:59:24.987Z,13084.00
2019-05-10T07:01:22.313Z,10328.00
2019-05-10T07:02:26.148Z,10160.00
2019-05-10T07:03:22.410Z,9464.00
2019-05-10T07:04:22.482Z,8604.00
2019-05-10T07:05:22.263Z,8300.00
2019-05-10T07:06:22.510Z,7620.00
2019-05-10T07:07:42.640Z,7536.00
2019-05-10T07:09:22.578Z,7260.00
2019-05-10T07:10:25.247Z,6956.00
2019-05-10T07:11:22.167Z,9116.00
2019-05-10T07:12:22.082Z,7880.00
2019-05-10T07:13:22.470Z,6756.00
2019-05-10T07:14:25.124Z,6688.00
2019-05-10T07:15:22.035Z,6592.00
2019-05-10T07:16:25.544Z,6248.00
2019-05-10T07:18:22.676Z,6536.00
2019-05-10T07:19:21.997Z,6660.00
2019-05-10T07:20:23.677Z,7224.00
2019-05-10T07:21:22.059Z,7888.00
2019-05-10T07:22:26.775Z,9800.00
2019-05-10T07:23:21.999Z,11096.00
2019-05-10T07:24:25.005Z,9636.00
2019-05-10T07:27:21.861Z,16236.00
2019-05-10T07:28:21.840Z,18176.00
2019-05-10T07:29:29.924Z,11204.00
2019-05-10T07:30:22.162Z,13388.00
2019-05-10T07:31:23.670Z,18784.00
2019-05-10T07:32:24.424Z,17248.00
2019-05-10T07:33:21.830Z,15116.00
2019-05-10T07:34:21.902Z,17280.00
2019-05-10T07:35:21.772Z,12844.00
2019-05-10T07:36:26.991Z,15064.00
2019-05-10T07:37:21.957Z,15580.00
2019-05-10T07:38:23.544Z,17600.00
2019-05-10T07:39:21.756Z,13688.00
2019-05-10T07:40:21.751Z,17216.00
2019-05-10T07:41:26.419Z,13436.00
2019-05-10T07:42:21.750Z,18080.00
2019-05-10T07:43:26.411Z,17568.00
2019-05-10T07:44:22.110Z,20768.00
2019-05-10T07:46:21.686Z,17600.00
2019-05-10T07:48:23.322Z,17984.00
2019-05-10T07:49:23.989Z,18880.00
2019-05-10T07:53:22.901Z,13904.00
2019-05-10T07:54:21.378Z,9996.00
2019-05-10T07:56:21.889Z,13312.00
2019-05-10T07:57:24.723Z,21408.00
2019-05-10T07:58:23.151Z,19104.00
2019-05-10T07:59:27.530Z,19168.00
2019-05-10T08:00:25.176Z,19328.00
2019-05-10T08:01:29.146Z,20864.00
2019-05-10T08:02:21.401Z,18336.00
2019-05-10T08:03:24.121Z,18880.00
2019-05-10T08:07:21.381Z,18880.00
2019-05-10T08:08:21.288Z,19936.00
2019-05-10T08:09:21.306Z,16512.00
2019-05-10T08:10:21.736Z,19808.00
2019-05-10T08:11:21.336Z,20928.00
2019-05-10T08:12:21.225Z,21056.00
2019-05-10T08:13:25.115Z,21824.00
2019-05-10T08:14:21.288Z,21024.00
2019-05-10T08:15:24.631Z,13848.00
2019-05-10T08:16:22.908Z,10140.00
2019-05-10T08:17:21.545Z,10596.00
2019-05-10T08:18:25.337Z,12912.00
2019-05-10T08:19:21.338Z,12312.00
2019-05-10T08:20:38.095Z,9416.00
2019-05-10T08:23:23.802Z,6988.00
2019-05-10T08:26:24.579Z,7928.00
2019-05-10T08:27:22.988Z,7732.00
2019-05-10T08:28:22.808Z,8524.00
2019-05-10T08:30:28.475Z,9104.00
2019-05-10T08:32:25.517Z,6120.00
2019-05-10T08:33:22.929Z,4988.00
2019-05-10T08:39:22.355Z,13512.00
2019-05-10T08:43:21.787Z,7372.00
2019-05-10T08:44:21.747Z,9364.00
2019-05-10T08:45:22.675Z,12364.00
2019-05-10T08:48:23.151Z,10440.00
2019-05-10T08:51:22.777Z,5864.00
2019-05-10T08:53:22.944Z,6244.00
2019-05-10T08:55:22.641Z,10616.00
2019-05-10T08:56:23.558Z,15972.00
2019-05-10T08:57:22.240Z,20864.00
2019-05-10T08:59:25.925Z,17408.00
2019-05-10T09:00:38.275Z,12920.00
2019-05-10T09:01:27.581Z,9932.00
2019-05-10T09:11:22.976Z,2996.00
2019-05-10T09:14:23.500Z,5552.00
2019-05-10T09:15:22.351Z,7040.00
2019-05-10T09:16:20.271Z,9972.00
2019-05-10T09:17:23.819Z,14060.00
2019-05-10T09:18:20.152Z,18464.00
2019-05-10T09:19:27.736Z,20160.00
2019-05-10T09:20:25.506Z,18176.00
2019-05-10T09:21:22.192Z,14704.00
2019-05-10T09:22:24.021Z,12864.00
2019-05-10T09:24:22.716Z,13392.00
2019-05-10T09:25:26.437Z,15508.00
2019-05-10T09:26:20.023Z,14920.00
2019-05-10T09:27:22.309Z,15624.00
2019-05-10T09:29:21.942Z,15328.00
2019-05-10T09:30:21.867Z,17216.00
2019-05-10T09:33:22.237Z,22016.00
2019-05-10T09:34:23.799Z,22944.00
2019-05-10T09:35:22.043Z,24544.00
2019-05-10T09:37:19.979Z,28448.00
2019-05-10T09:38:21.965Z,29184.00
2019-05-10T09:39:24.302Z,32832.00
2019-05-10T09:40:21.968Z,34688.00
2019-05-10T09:41:19.788Z,34688.00
2019-05-10T09:42:26.586Z,36416.00
2019-05-10T09:45:22.169Z,23168.00
2019-05-10T09:46:19.834Z,24512.00
2019-05-10T09:49:19.968Z,26176.00
2019-05-10T09:51:27.889Z,24896.00
2019-05-10T09:52:19.702Z,21440.00
2019-05-10T09:53:25.701Z,17856.00
2019-05-10T09:54:23.314Z,14772.00
2019-05-10T09:55:19.590Z,12024.00
2019-05-10T10:01:21.851Z,3764.00
2019-05-10T10:02:19.588Z,4816.00
2019-05-10T10:03:19.497Z,5696.00
2019-05-10T10:04:20.491Z,6028.00
2019-05-10T10:05:19.479Z,6368.00
2019-05-10T10:07:24.169Z,6552.00
2019-05-10T10:09:24.679Z,8916.00
2019-05-10T10:12:19.388Z,11736.00
2019-05-10T10:17:20.477Z,20992.00
2019-05-10T10:18:25.029Z,21376.00
2019-05-10T10:19:21.467Z,19936.00
2019-05-10T10:20:19.343Z,18656.00
2019-05-10T10:21:30.818Z,19104.00
2019-05-10T10:22:19.866Z,20000.00
2019-05-10T10:24:20.284Z,21248.00
2019-05-10T10:25:19.809Z,23392.00
2019-05-10T10:26:22.306Z,27488.00
2019-05-10T10:29:19.430Z,43616.00
2019-05-10T10:33:25.322Z,32736.00
2019-05-10T10:34:19.074Z,25248.00
2019-05-10T10:36:19.410Z,21888.00
2019-05-10T10:37:22.142Z,16436.00
2019-05-10T10:38:18.943Z,20992.00
2019-05-10T10:40:18.989Z,23424.00
2019-05-10T10:41:26.080Z,28000.00
2019-05-10T10:42:19.290Z,34912.00
2019-05-10T10:43:18.852Z,53728.00
2019-05-10T10:45:18.835Z,91136.00
2019-05-10T10:46:19.922Z,81824.00
2019-05-10T10:51:19.249Z,35328.00
2019-05-10T10:52:18.745Z,54336.00
2019-05-10T10:53:18.783Z,60768.00
2019-05-10T10:56:18.688Z,4184.00
2019-05-10T10:57:18.738Z,4060.00
2019-05-10T10:58:19.055Z,4012.00
2019-05-10T10:59:18.648Z,5188.00
2019-05-10T11:00:23.217Z,6160.00
2019-05-10T11:05:18.866Z,9544.00
2019-05-10T11:07:19.391Z,15732.00
2019-05-10T11:08:18.725Z,18496.00
2019-05-10T11:09:20.663Z,19936.00
2019-05-10T11:10:21.575Z,21920.00
2019-05-10T11:11:18.916Z,21312.00
2019-05-10T11:12:20.859Z,21088.00
2019-05-10T11:13:23.964Z,21184.00
2019-05-10T11:14:20.503Z,20320.00
2019-05-10T11:16:20.656Z,19296.00
2019-05-10T11:17:18.728Z,21824.00
2019-05-10T11:21:18.655Z,31424.00
2019-05-10T11:22:18.302Z,28928.00
2019-05-10T11:23:18.349Z,30176.00
2019-05-10T11:24:20.310Z,37760.00
2019-05-10T11:25:18.323Z,38400.00
2019-05-10T11:26:18.286Z,28800.00
2019-05-10T11:27:18.234Z,28896.00
2019-05-10T11:29:25.308Z,28128.00
2019-05-10T11:32:18.196Z,43968.00
2019-05-10T11:34:18.150Z,38976.00
2019-05-10T11:35:27.766Z,97888.00
2019-05-10T11:36:18.112Z,18400.00
2019-05-10T11:37:18.965Z,19424.00
2019-05-10T11:38:18.497Z,22560.00
2019-05-10T11:45:20.784Z,6144.00
2019-05-10T11:49:17.883Z,9392.00
2019-05-10T11:52:18.208Z,9656.00
2019-05-10T11:53:17.885Z,10792.00
2019-05-10T11:55:17.784Z,7684.00
2019-05-10T11:56:17.769Z,6384.00
2019-05-10T11:58:18.205Z,4968.00
2019-05-10T11:59:04.737Z,7504.00
2019-05-10T11:59:17.825Z,6192.00
2019-05-10T12:02:35.323Z,6168.00
2019-05-10T12:03:22.397Z,6200.00
2019-05-10T12:04:24.059Z,7856.00
2019-05-10T12:06:17.658Z,11272.00
2019-05-10T12:07:24.655Z,8196.00
2019-05-10T12:08:17.564Z,11076.00
2019-05-10T12:11:29.233Z,21280.00
2019-05-10T12:21:17.761Z,22848.00
2019-05-10T12:22:17.412Z,29024.00
2019-05-10T12:26:17.889Z,10308.00
2019-05-10T12:28:23.981Z,28576.00
2019-05-10T12:29:17.400Z,25856.00
2019-05-10T12:30:17.313Z,23008.00
2019-05-10T12:33:24.916Z,21920.00
2019-05-10T12:35:17.467Z,21536.00
2019-05-10T12:37:17.196Z,22880.00
2019-05-10T12:38:17.076Z,21952.00
2019-05-10T12:39:17.056Z,20320.00
2019-05-10T12:43:17.439Z,19040.00
2019-05-10T12:44:16.980Z,15052.00
2019-05-10T12:45:16.963Z,10628.00
2019-05-10T12:46:17.274Z,7956.00
2019-05-10T12:47:16.951Z,7732.00
2019-05-10T12:48:16.953Z,8076.00
2019-05-10T12:49:16.950Z,6788.00
2019-05-10T12:50:17.350Z,6688.00
2019-05-10T12:51:16.917Z,7404.00
2019-05-10T12:53:18.546Z,7400.00
2019-05-10T12:54:18.471Z,6680.00
2019-05-10T12:55:16.851Z,6320.00
2019-05-10T12:56:16.881Z,7644.00
2019-05-10T12:57:17.156Z,10336.00
2019-05-10T12:58:16.758Z,12768.00
2019-05-10T12:59:16.757Z,15280.00
2019-05-10T13:00:16.724Z,18272.00
2019-05-10T13:01:16.894Z,21216.00
2019-05-10T13:02:16.802Z,21184.00
2019-05-10T13:03:19.250Z,19808.00
2019-05-10T13:05:16.955Z,17376.00
2019-05-10T13:06:19.694Z,16484.00
2019-05-10T13:09:16.640Z,16424.00
2019-05-10T13:10:16.782Z,16220.00
2019-05-10T13:11:18.829Z,15628.00
2019-05-10T13:12:17.042Z,15872.00
2019-05-10T13:13:17.495Z,17088.00
2019-05-10T13:14:16.517Z,17536.00
2019-05-10T13:15:16.587Z,17376.00
2019-05-10T13:16:16.533Z,17216.00
2019-05-10T13:17:17.195Z,17120.00
2019-05-10T13:18:16.863Z,15760.00
2019-05-10T13:19:20.126Z,14644.00
2019-05-10T13:20:16.993Z,13992.00
2019-05-10T13:22:16.783Z,13396.00
2019-05-10T13:24:16.746Z,12528.00
2019-05-10T13:25:16.435Z,11948.00
2019-05-10T13:26:16.300Z,13472.00
2019-05-10T13:27:16.345Z,14680.00
2019-05-10T13:28:16.366Z,15456.00
2019-05-10T13:29:16.789Z,14832.00
2019-05-10T13:30:16.528Z,13676.00
2019-05-10T13:33:28.390Z,14388.00
2019-05-10T13:35:16.160Z,13084.00
2019-05-10T13:37:23.399Z,12940.00
2019-05-10T13:38:16.190Z,11540.00
2019-05-10T13:39:19.214Z,7472.00
2019-05-10T13:40:16.100Z,3828.00
2019-05-10T13:41:18.003Z,2160.00
2019-05-10T13:42:16.032Z,1920.00
2019-05-10T13:43:17.274Z,2720.00
2019-05-10T13:45:16.113Z,4376.00
2019-05-10T13:46:16.098Z,5340.00
2019-05-10T13:47:15.953Z,6904.00
2019-05-10T13:48:16.413Z,8116.00
2019-05-10T13:49:16.497Z,8928.00
2019-05-10T13:53:20.903Z,21216.00
2019-05-10T13:54:15.829Z,22208.00
2019-05-10T13:55:16.202Z,21856.00
2019-05-10T13:57:15.827Z,21984.00
2019-05-10T13:58:15.770Z,24800.00
2019-05-10T13:59:17.918Z,28672.00
2019-05-10T14:00:15.726Z,28672.00
2019-05-10T14:01:15.886Z,21952.00
2019-05-10T14:02:16.010Z,14452.00
2019-05-10T14:03:15.706Z,14064.00
2019-05-10T14:04:15.665Z,17344.00
2019-05-10T14:05:17.667Z,23264.00
2019-05-10T14:06:15.751Z,22304.00
2019-05-10T14:07:15.637Z,18816.00
2019-05-10T14:08:15.983Z,16596.00
2019-05-10T14:09:15.904Z,14064.00
2019-05-10T14:10:18.307Z,12428.00
2019-05-10T14:11:15.841Z,13760.00
2019-05-10T14:12:22.399Z,33632.00
2019-05-10T14:18:15.917Z,17792.00
2019-05-10T14:21:15.497Z,17536.00
2019-05-10T14:22:15.686Z,15828.00
2019-05-10T14:25:15.995Z,16320.00
2019-05-10T14:26:18.022Z,22432.00
2019-05-10T14:29:15.397Z,20416.00
2019-05-10T14:31:15.546Z,17440.00
2019-05-10T14:32:15.245Z,17952.00
2019-05-10T14:33:17.242Z,19520.00
2019-05-10T14:34:15.852Z,23616.00
2019-05-10T14:35:16.493Z,25024.00
2019-05-10T14:36:15.268Z,31200.00
2019-05-10T14:37:19.822Z,28064.00
2019-05-10T14:38:15.446Z,23424.00
2019-05-10T14:39:15.134Z,21184.00
2019-05-10T14:40:16.826Z,19328.00
2019-05-10T14:41:15.178Z,20672.00
2019-05-10T14:45:15.506Z,38112.00
2019-05-10T14:46:15.031Z,41760.00
2019-05-10T14:48:15.758Z,32736.00
2019-05-10T14:49:14.997Z,19808.00
2019-05-10T14:50:19.559Z,22016.00
2019-05-10T14:52:15.012Z,10416.00
2019-05-10T14:55:14.985Z,10144.00
2019-05-10T14:58:15.242Z,11968.00
2019-05-10T14:59:14.985Z,9816.00
2019-05-10T15:01:14.872Z,7796.00
2019-05-10T15:04:20.151Z,10384.00
2019-05-10T15:07:16.563Z,9596.00
2019-05-10T15:09:21.498Z,20288.00
2019-05-10T15:10:14.851Z,21312.00
2019-05-10T15:11:14.771Z,16056.00
2019-05-10T15:12:16.295Z,15952.00
2019-05-10T15:14:14.672Z,12572.00
2019-05-10T15:15:14.779Z,14392.00
2019-05-10T15:16:26.226Z,14520.00
2019-05-10T15:17:20.035Z,13192.00
2019-05-10T15:18:14.725Z,11360.00
2019-05-10T15:20:14.602Z,9284.00
2019-05-10T15:21:14.568Z,7904.00
2019-05-10T15:22:18.455Z,7520.00
2019-05-10T15:23:14.551Z,6680.00
2019-05-10T15:24:14.512Z,6308.00
2019-05-10T15:25:14.537Z,5588.00
2019-05-10T15:26:14.747Z,4868.00
2019-05-10T15:28:14.595Z,7592.00
2019-05-10T15:31:14.430Z,7676.00
2019-05-10T15:32:14.390Z,7004.00
2019-05-10T15:35:14.730Z,8660.00
2019-05-10T15:36:15.054Z,9352.00
2019-05-10T15:37:17.506Z,9844.00
2019-05-10T15:38:14.329Z,9976.00
2019-05-10T15:41:17.016Z,9404.00
2019-05-10T15:42:14.550Z,9216.00
2019-05-10T15:43:17.249Z,8904.00
2019-05-10T15:44:14.204Z,9380.00
2019-05-10T15:45:14.871Z,10352.00
2019-05-10T15:46:14.154Z,11564.00
2019-05-10T15:48:14.134Z,16768.00
2019-05-10T15:49:22.622Z,17088.00
2019-05-10T15:50:14.109Z,21024.00
2019-05-10T15:51:16.885Z,17376.00
2019-05-10T15:55:17.122Z,12572.00
2019-05-10T15:58:13.958Z,8364.00
2019-05-10T15:59:19.261Z,7912.00
2019-05-10T16:01:14.626Z,10564.00
2019-05-10T16:02:14.290Z,11620.00
2019-05-10T16:03:14.175Z,11316.00
2019-05-10T16:04:14.379Z,12168.00
2019-05-10T16:05:24.096Z,12640.00
2019-05-10T16:06:14.257Z,12600.00
2019-05-10T16:07:16.310Z,13188.00
2019-05-10T16:15:19.951Z,14348.00
2019-05-10T16:17:17.568Z,9556.00
2019-05-10T16:18:13.655Z,7352.00
2019-05-10T16:19:18.481Z,6452.00
2019-05-10T16:20:13.641Z,6680.00
2019-05-10T16:21:15.236Z,8212.00
2019-05-10T16:22:14.583Z,8980.00
2019-05-10T16:23:13.785Z,7068.00
2019-05-10T16:24:13.805Z,5236.00
2019-05-10T16:25:13.973Z,4380.00
2019-05-10T16:26:17.561Z,4744.00
2019-05-10T16:27:13.556Z,5324.00
2019-05-10T16:28:15.500Z,5364.00
2019-05-10T16:29:13.657Z,5360.00
2019-05-10T16:30:17.836Z,5556.00
2019-05-10T16:31:13.679Z,5320.00
2019-05-10T16:32:13.443Z,5748.00
2019-05-10T16:34:13.913Z,7368.00
2019-05-10T16:35:14.715Z,7768.00
2019-05-10T16:36:13.519Z,8288.00
2019-05-10T16:37:13.345Z,8616.00
2019-05-10T16:38:13.362Z,9124.00
2019-05-10T16:39:13.698Z,8976.00
2019-05-10T16:40:13.403Z,9028.00
2019-05-10T16:41:13.287Z,8644.00
2019-05-10T16:42:13.363Z,8852.00
2019-05-10T16:44:13.579Z,8220.00
2019-05-10T16:45:13.470Z,7852.00
2019-05-10T16:47:13.561Z,6960.00
2019-05-10T16:48:13.167Z,6744.00
2019-05-10T16:49:15.483Z,6584.00
2019-05-10T16:50:13.887Z,6740.00
2019-05-10T16:51:13.725Z,6616.00
2019-05-10T16:52:13.088Z,6276.00
2019-05-10T16:53:13.389Z,5868.00
2019-05-10T16:54:13.604Z,6032.00
2019-05-10T16:55:13.045Z,6184.00
2019-05-10T16:56:18.010Z,5940.00
2019-05-10T16:57:13.348Z,5628.00
2019-05-10T16:58:15.158Z,5560.00
2019-05-10T16:59:13.076Z,5560.00
2019-05-10T17:00:13.254Z,5508.00
2019-05-10T17:01:13.029Z,5268.00
2019-05-10T17:02:12.924Z,5236.00
2019-05-10T17:03:17.625Z,5216.00
2019-05-10T17:04:12.897Z,5044.00
2019-05-10T17:05:15.202Z,5060.00
2019-05-10T17:06:12.924Z,5344.00
2019-05-10T17:07:18.852Z,5632.00
2019-05-10T17:08:12.904Z,5208.00
2019-05-10T17:09:18.189Z,4996.00
2019-05-10T17:10:12.948Z,4892.00
2019-05-10T17:11:12.767Z,5028.00
2019-05-10T17:12:12.746Z,6080.00
2019-05-10T17:13:12.738Z,6244.00
2019-05-10T17:14:17.920Z,6192.00
2019-05-10T17:15:12.801Z,6116.00
2019-05-10T17:16:16.949Z,6208.00
2019-05-10T17:18:17.568Z,7392.00
2019-05-10T17:19:13.703Z,7480.00
2019-05-10T17:20:15.649Z,6560.00
2019-05-10T17:21:13.250Z,4924.00
2019-05-10T17:22:12.586Z,4136.00
2019-05-10T17:23:12.559Z,3692.00
2019-05-10T17:24:12.564Z,3532.00
2019-05-10T17:25:12.547Z,3508.00
2019-05-10T17:26:12.518Z,3512.00
2019-05-10T17:27:12.657Z,3500.00
2019-05-10T17:28:12.794Z,3464.00
2019-05-10T17:29:14.733Z,3428.00
2019-05-10T17:30:12.454Z,3432.00
2019-05-10T17:31:12.434Z,3504.00
2019-05-10T17:32:12.507Z,3520.00
2019-05-10T17:33:12.448Z,3464.00
2019-05-10T17:35:12.668Z,3344.00
2019-05-10T17:36:14.437Z,3308.00
2019-05-10T17:37:12.452Z,3288.00
2019-05-10T17:38:14.242Z,3272.00
2019-05-10T17:40:12.497Z,3128.00
2019-05-10T17:41:12.338Z,3040.00
2019-05-10T17:42:12.583Z,2920.00
2019-05-10T17:44:12.325Z,2740.00
2019-05-10T17:45:12.239Z,2692.00
2019-05-10T17:47:12.336Z,2592.00
2019-05-10T17:48:12.584Z,2552.00
2019-05-10T17:49:12.184Z,2516.00
2019-05-10T17:52:12.172Z,2392.00
2019-05-10T17:53:12.306Z,2344.00
2019-05-10T17:54:12.524Z,2308.00
2019-05-10T17:59:13.838Z,2112.00
2019-05-10T18:00:12.010Z,2072.00
2019-05-10T18:02:12.356Z,2012.00
2019-05-10T18:03:11.948Z,1980.00
2019-05-10T18:05:12.103Z,1912.00
2019-05-10T18:06:23.685Z,1876.00
2019-05-10T18:07:11.890Z,1840.00
2019-05-10T18:08:12.293Z,1800.00
2019-05-10T18:13:11.797Z,1600.00
2019-05-10T18:14:17.879Z,1564.00
2019-05-10T18:15:11.768Z,1532.00
2019-05-10T18:16:11.788Z,1496.00
2019-05-10T18:17:11.742Z,1452.00
2019-05-10T18:18:11.800Z,1408.00
2019-05-10T18:19:11.841Z,1376.00
2019-05-10T18:21:15.826Z,1292.00
2019-05-10T18:22:11.714Z,1248.00
2019-05-10T18:23:20.126Z,1208.00
2019-05-10T18:24:12.502Z,1160.00
2019-05-10T18:26:11.605Z,1008.00
2019-05-10T18:28:11.900Z,964.00
2019-05-10T18:29:11.589Z,928.00
2019-05-10T18:30:11.629Z,892.00
2019-05-10T18:31:11.518Z,864.00
2019-05-10T18:34:12.017Z,780.00
2019-05-10T18:35:14.550Z,748.00
2019-05-10T18:37:15.882Z,688.00
2019-05-10T18:38:12.213Z,660.00
2019-05-10T18:39:15.556Z,628.00
2019-05-10T18:41:11.872Z,576.00
2019-05-10T18:48:11.566Z,404.00
2019-05-10T18:50:11.184Z,360.00
2019-05-10T18:52:11.247Z,316.00
2019-05-10T18:53:11.138Z,300.00
2019-05-10T18:54:11.727Z,280.00
2019-05-10T18:55:11.508Z,260.00
2019-05-10T18:56:11.134Z,244.00
2019-05-10T18:58:11.044Z,208.00
2019-05-10T18:59:11.130Z,192.00
2019-05-10T19:00:11.046Z,180.00
2019-05-10T19:03:11.297Z,140.00
2019-05-10T19:04:14.113Z,128.00
2019-05-10T19:05:13.469Z,116.00
2019-05-10T19:06:13.134Z,108.00
2019-05-10T19:07:11.158Z,96.00
2019-05-10T19:08:10.820Z,88.00
2019-05-10T19:09:10.902Z,80.00
2019-05-10T19:11:11.170Z,64.00
2019-05-10T19:14:10.752Z,48.00
2019-05-10T19:15:15.422Z,40.00
2019-05-10T19:17:11.347Z,32.00
2019-05-10T19:18:10.997Z,28.00
2019-05-10T19:19:10.651Z,24.00
2019-05-10T19:20:16.100Z,20.00
2019-05-10T19:21:10.626Z,16.00
2019-05-10T19:27:10.975Z,8.00